createdAt,value
2019-05-12T00:00:28.570Z,-154
2019-05-12T00:00:58.465Z,-154
2019-05-12T00:01:28.349Z,-154
2019-05-12T00:01:58.596Z,-148
2019-05-12T00:02:28.565Z,-147
2019-05-12T00:02:59.020Z,-148
2019-05-12T00:03:27.640Z,-148
2019-05-12T00:03:58.011Z,-146
2019-05-12T00:04:28.016Z,-146
2019-05-12T00:04:58.246Z,-150
2019-05-12T00:05:27.927Z,-147
2019-05-12T00:05:57.748Z,-149
2019-05-12T00:06:28.304Z,-149
2019-05-12T00:06:58.497Z,-148
2019-05-12T00:07:28.528Z,-148
2019-05-12T00:07:58.300Z,-149
2019-05-12T00:08:27.677Z,-149
2019-05-12T00:08:57.944Z,-149
2019-05-12T00:09:28.198Z,-146
2019-05-12T00:09:58.180Z,-148
2019-05-12T00:10:28.205Z,-148
2019-05-12T00:10:58.223Z,-148
2019-05-12T00:11:28.497Z,-143
2019-05-12T00:11:58.498Z,-147
2019-05-12T00:12:27.746Z,-148
2019-05-12T00:12:58.148Z,-148
2019-05-12T00:13:27.862Z,-151
2019-05-12T00:13:58.557Z,-147
2019-05-12T00:14:28.217Z,-150
2019-05-12T00:14:58.909Z,-149
2019-05-12T00:15:27.933Z,-149
2019-05-12T00:15:58.248Z,-151
2019-05-12T00:16:28.303Z,-151
2019-05-12T00:16:58.001Z,-146
2019-05-12T00:17:28.399Z,-146
2019-05-12T00:17:58.584Z,-146
2019-05-12T00:18:28.436Z,-146
2019-05-12T00:18:58.524Z,-149
2019-05-12T00:19:29.596Z,-151
2019-05-12T00:19:58.437Z,-152
2019-05-12T00:20:28.288Z,-148
2019-05-12T00:20:57.893Z,-152
2019-05-12T00:21:28.266Z,-169
2019-05-12T00:21:58.682Z,-155
2019-05-12T00:22:28.637Z,-155
2019-05-12T00:22:58.111Z,-165
2019-05-12T00:23:27.930Z,-149
2019-05-12T00:23:58.169Z,-147
2019-05-12T00:24:27.923Z,-142
2019-05-12T00:24:58.354Z,-148
2019-05-12T00:25:28.256Z,-148
2019-05-12T00:25:58.707Z,-146
2019-05-12T00:26:28.242Z,-147
2019-05-12T00:26:58.023Z,-144
2019-05-12T00:27:28.405Z,-149
2019-05-12T00:27:58.584Z,-147
2019-05-12T00:28:28.350Z,-147
2019-05-12T00:28:58.781Z,-148
2019-05-12T00:29:28.672Z,-150
2019-05-12T00:29:57.816Z,-150
2019-05-12T00:30:27.656Z,-144
2019-05-12T00:30:58.006Z,-149
2019-05-12T00:31:28.067Z,-149
2019-05-12T00:31:58.006Z,-145
2019-05-12T00:32:28.171Z,-145
2019-05-12T00:32:58.026Z,-155
2019-05-12T00:33:28.160Z,-149
2019-05-12T00:33:58.673Z,-149
2019-05-12T00:34:28.828Z,-149
2019-05-12T00:34:58.512Z,-145
2019-05-12T00:35:28.443Z,-145
2019-05-12T00:35:58.676Z,-145
2019-05-12T00:36:29.057Z,-152
2019-05-12T00:36:57.704Z,-152
2019-05-12T00:37:28.828Z,-146
2019-05-12T00:37:57.756Z,-146
2019-05-12T00:38:27.791Z,-149
2019-05-12T00:38:57.981Z,-146
2019-05-12T00:39:27.829Z,-146
2019-05-12T00:39:58.242Z,-147
2019-05-12T00:40:28.012Z,-147
2019-05-12T00:40:58.283Z,-150
2019-05-12T00:41:28.351Z,-149
2019-05-12T00:41:58.607Z,-150
2019-05-12T00:42:28.727Z,-150
2019-05-12T00:42:57.829Z,-149
2019-05-12T00:43:28.085Z,-146
2019-05-12T00:43:58.211Z,-146
2019-05-12T00:44:28.405Z,-148
2019-05-12T00:44:58.523Z,-145
2019-05-12T00:45:29.145Z,-145
2019-05-12T00:45:58.635Z,-144
2019-05-12T00:46:27.914Z,-149
2019-05-12T00:46:57.738Z,-149
2019-05-12T00:47:28.018Z,-150
2019-05-12T00:47:58.179Z,-145
2019-05-12T00:48:28.382Z,-151
2019-05-12T00:48:58.478Z,-149
2019-05-12T00:49:28.900Z,-149
2019-05-12T00:49:58.302Z,-153
2019-05-12T00:50:28.822Z,-146
2019-05-12T00:50:58.340Z,-148
2019-05-12T00:51:28.762Z,-145
2019-05-12T00:51:58.668Z,-147
2019-05-12T00:52:28.123Z,-149
2019-05-12T00:52:58.173Z,-147
2019-05-12T00:53:36.949Z,-144
2019-05-12T00:53:58.072Z,-147
2019-05-12T00:54:28.401Z,-145
2019-05-12T00:54:58.625Z,-150
2019-05-12T00:55:28.810Z,-146
2019-05-12T00:55:57.998Z,-146
2019-05-12T00:56:28.371Z,-149
2019-05-12T00:56:58.519Z,-149
2019-05-12T00:57:28.615Z,-148
2019-05-12T00:57:58.267Z,-148
2019-05-12T00:58:27.912Z,-147
2019-05-12T00:58:58.051Z,-147
2019-05-12T00:59:27.989Z,-146
2019-05-12T00:59:58.195Z,-144
2019-05-12T01:00:28.987Z,-146
2019-05-12T01:00:59.490Z,-149
2019-05-12T01:01:28.487Z,-147
2019-05-12T01:01:58.603Z,-147
2019-05-12T01:02:28.628Z,-150
2019-05-12T01:02:58.406Z,-149
2019-05-12T01:03:28.131Z,-149
2019-05-12T01:03:58.085Z,-146
2019-05-12T01:04:29.083Z,-146
2019-05-12T01:04:58.146Z,-145
2019-05-12T01:05:29.344Z,-149
2019-05-12T01:05:57.892Z,-149
2019-05-12T01:06:28.411Z,-145
2019-05-12T01:06:58.220Z,-148
2019-05-12T01:07:27.906Z,-147
2019-05-12T01:07:58.533Z,-147
2019-05-12T01:08:28.192Z,-148
2019-05-12T01:08:58.058Z,-147
2019-05-12T01:09:28.240Z,-147
2019-05-12T01:09:58.024Z,-147
2019-05-12T01:10:28.711Z,-146
2019-05-12T01:10:58.467Z,-147
2019-05-12T01:11:28.673Z,-144
2019-05-12T01:11:58.754Z,-144
2019-05-12T01:12:28.580Z,-147
2019-05-12T01:12:58.437Z,-148
2019-05-12T01:13:28.149Z,-148
2019-05-12T01:13:58.437Z,-149
2019-05-12T01:14:28.190Z,-149
2019-05-12T01:14:58.828Z,-146
2019-05-12T01:15:29.028Z,-148
2019-05-12T01:15:58.824Z,-146
2019-05-12T01:16:29.030Z,-147
2019-05-12T01:16:58.791Z,-149
2019-05-12T01:17:28.773Z,-151
2019-05-12T01:17:58.866Z,-151
2019-05-12T01:18:28.797Z,-146
2019-05-12T01:18:58.765Z,-143
2019-05-12T01:19:28.960Z,-143
2019-05-12T01:19:58.759Z,-145
2019-05-12T01:20:28.811Z,-144
2019-05-12T01:20:58.803Z,-144
2019-05-12T01:21:28.873Z,-149
2019-05-12T01:21:58.917Z,-149
2019-05-12T01:22:28.839Z,-150
2019-05-12T01:22:58.862Z,-148
2019-05-12T01:23:28.820Z,-151
2019-05-12T01:24:03.211Z,-154
2019-05-12T01:24:28.873Z,-154
2019-05-12T01:24:58.976Z,-150
2019-05-12T01:25:29.400Z,-150
2019-05-12T01:25:59.012Z,-151
2019-05-12T01:26:30.543Z,-146
2019-05-12T01:26:58.935Z,-151
2019-05-12T01:27:28.908Z,-151
2019-05-12T01:27:59.186Z,-149
2019-05-12T01:28:29.087Z,-151
2019-05-12T01:28:59.022Z,-151
2019-05-12T01:29:29.160Z,-149
2019-05-12T01:29:59.026Z,-149
2019-05-12T01:30:28.984Z,-150
2019-05-12T01:30:59.026Z,-150
2019-05-12T01:31:29.040Z,-150
2019-05-12T01:31:59.137Z,-150
2019-05-12T01:32:29.211Z,-149
2019-05-12T01:32:59.173Z,-147
2019-05-12T01:33:29.139Z,-152
2019-05-12T01:33:59.168Z,-146
2019-05-12T01:34:29.168Z,-146
2019-05-12T01:34:59.220Z,-151
2019-05-12T01:35:29.165Z,-149
2019-05-12T01:35:59.180Z,-146
2019-05-12T01:36:29.256Z,-150
2019-05-12T01:36:59.212Z,-150
2019-05-12T01:37:29.199Z,-147
2019-05-12T01:38:01.500Z,-147
2019-05-12T01:38:29.212Z,-147
2019-05-12T01:39:01.806Z,-146
2019-05-12T01:39:29.251Z,-145
2019-05-12T01:40:00.029Z,-149
2019-05-12T01:40:29.399Z,-149
2019-05-12T01:40:59.397Z,-149
2019-05-12T01:41:29.338Z,-151
2019-05-12T01:41:59.485Z,-148
2019-05-12T01:42:29.337Z,-149
2019-05-12T01:42:59.341Z,-149
2019-05-12T01:43:29.404Z,-150
2019-05-12T01:43:59.803Z,-148
2019-05-12T01:44:29.803Z,-148
2019-05-12T01:44:59.770Z,-148
2019-05-12T01:45:29.749Z,-148
2019-05-12T01:45:59.818Z,-150
2019-05-12T01:46:29.767Z,-150
2019-05-12T01:46:59.896Z,-150
2019-05-12T01:47:29.842Z,-151
2019-05-12T01:47:59.880Z,-151
2019-05-12T01:48:29.828Z,-153
2019-05-12T01:48:59.872Z,-149
2019-05-12T01:49:29.837Z,-152
2019-05-12T01:49:59.870Z,-152
2019-05-12T01:50:29.876Z,-149
2019-05-12T01:50:59.849Z,-149
2019-05-12T01:51:29.959Z,-149
2019-05-12T01:51:59.985Z,-149
2019-05-12T01:52:29.916Z,-146
2019-05-12T01:52:59.949Z,-148
2019-05-12T01:53:29.958Z,-148
2019-05-12T01:54:10.380Z,-146
2019-05-12T01:54:29.938Z,-146
2019-05-12T01:55:00.050Z,-150
2019-05-12T01:55:30.041Z,-149
2019-05-12T01:56:00.135Z,-147
2019-05-12T01:56:30.194Z,-149
2019-05-12T01:57:00.046Z,-147
2019-05-12T01:57:30.016Z,-146
2019-05-12T01:58:00.041Z,-147
2019-05-12T01:58:30.182Z,-147
2019-05-12T01:59:00.138Z,-145
2019-05-12T01:59:30.161Z,-144
2019-05-12T02:00:00.130Z,-146
2019-05-12T02:00:30.124Z,-146
2019-05-12T03:19:36.692Z,-147
2019-05-12T04:59:35.039Z,-137
2019-05-12T05:11:35.058Z,-117
2019-05-12T05:13:05.682Z,-118
2019-05-12T05:14:05.036Z,-123
2019-05-12T05:14:35.170Z,-127
2019-05-12T05:15:05.502Z,-110
2019-05-12T05:15:35.454Z,-111
2019-05-12T05:16:05.496Z,-107
2019-05-12T05:16:35.050Z,-105
2019-05-12T05:17:05.703Z,-103
2019-05-12T05:17:35.203Z,-105
2019-05-12T05:18:06.566Z,-105
2019-05-12T05:18:35.193Z,-102
2019-05-12T05:19:05.191Z,-102
2019-05-12T05:19:35.167Z,-107
2019-05-12T05:20:05.186Z,-105
2019-05-12T05:20:35.153Z,-105
2019-05-12T05:21:05.195Z,-104
2019-05-12T05:21:35.111Z,-105
2019-05-12T05:22:05.291Z,-105
2019-05-12T05:22:37.889Z,-104
2019-05-12T05:23:05.214Z,-103
2019-05-12T05:23:35.258Z,-106
2019-05-12T05:24:05.252Z,-105
2019-05-12T05:24:35.242Z,-105
2019-05-12T05:25:05.279Z,-104
2019-05-12T05:25:35.233Z,-108
2019-05-12T05:26:05.317Z,-108
2019-05-12T05:26:37.363Z,-106
2019-05-12T05:27:05.355Z,-106
2019-05-12T05:27:35.342Z,-109
2019-05-12T05:28:05.339Z,-107
2019-05-12T05:28:35.285Z,-109
2019-05-12T05:29:05.373Z,-110
2019-05-12T05:29:37.189Z,-109
2019-05-12T05:30:05.451Z,-112
2019-05-12T05:30:35.567Z,-112
2019-05-12T05:31:05.511Z,-149
2019-05-12T05:31:35.455Z,-119
2019-05-12T05:32:05.392Z,-105
2019-05-12T05:32:35.380Z,-107
2019-05-12T05:33:05.495Z,-107
2019-05-12T05:33:35.589Z,-108
2019-05-12T05:34:05.512Z,-113
2019-05-12T05:34:35.678Z,-110
2019-05-12T05:35:07.588Z,-105
2019-05-12T05:35:39.495Z,-109
2019-05-12T05:36:08.761Z,-109
2019-05-12T05:36:35.459Z,-109
2019-05-12T05:37:05.517Z,-109
2019-05-12T05:37:39.637Z,-104
2019-05-12T05:38:05.628Z,-106
2019-05-12T05:38:35.542Z,-107
2019-05-12T05:39:05.628Z,-105
2019-05-12T05:40:05.675Z,-108
2019-05-12T05:40:36.119Z,-110
2019-05-12T05:41:10.248Z,-110
2019-05-12T05:41:40.038Z,-106
2019-05-12T05:42:05.652Z,-109
2019-05-12T05:42:35.789Z,-109
2019-05-12T05:43:13.749Z,-110
2019-05-12T05:43:35.754Z,-106
2019-05-12T05:44:05.634Z,-106
2019-05-12T05:44:37.937Z,-105
2019-05-12T05:45:09.780Z,-105
2019-05-12T05:45:35.812Z,-108
2019-05-12T05:46:07.699Z,-108
2019-05-12T05:46:38.866Z,-109
2019-05-12T05:47:05.815Z,-151
2019-05-12T05:47:35.828Z,-141
2019-05-12T05:48:09.925Z,-135
2019-05-12T05:48:35.774Z,-125
2019-05-12T05:49:05.704Z,-106
2019-05-12T05:49:35.779Z,-108
2019-05-12T05:50:05.885Z,-106
2019-05-12T05:50:35.834Z,-110
2019-05-12T05:51:08.899Z,-110
2019-05-12T05:51:39.388Z,-100
2019-05-12T05:52:05.832Z,-105
2019-05-12T05:52:38.594Z,-103
2019-05-12T05:53:09.093Z,-103
2019-05-12T05:53:35.788Z,-100
2019-05-12T05:54:05.874Z,-96
2019-05-12T05:54:37.106Z,-92
2019-05-12T05:55:35.869Z,-91
2019-05-12T05:56:05.880Z,-90
2019-05-12T05:56:41.736Z,-95
2019-05-12T05:57:06.259Z,-103
2019-05-12T05:57:35.888Z,-99
2019-05-12T05:58:10.201Z,-100
2019-05-12T05:58:40.103Z,-94
2019-05-12T05:59:06.057Z,-97
2019-05-12T05:59:36.800Z,-95
2019-05-12T06:00:07.008Z,-99
2019-05-12T06:00:39.254Z,-103
2019-05-12T06:01:07.711Z,-103
2019-05-12T06:01:40.007Z,-99
2019-05-12T06:02:06.102Z,-103
2019-05-12T06:02:40.290Z,-103
2019-05-12T06:03:06.242Z,-105
2019-05-12T06:03:36.065Z,-100
2019-05-12T06:04:08.569Z,-102
2019-05-12T06:04:39.019Z,-150
2019-05-12T06:05:06.187Z,-152
2019-05-12T06:05:38.523Z,-126
2019-05-12T06:06:10.306Z,-113
2019-05-12T06:06:36.202Z,-105
2019-05-12T06:07:06.276Z,-104
2019-05-12T06:07:39.035Z,-108
2019-05-12T06:08:09.385Z,-107
2019-05-12T06:08:36.162Z,-104
2019-05-12T06:09:06.186Z,-102
2019-05-12T06:09:36.206Z,-102
2019-05-12T06:10:06.302Z,-105
2019-05-12T06:10:40.003Z,-109
2019-05-12T06:11:08.518Z,-112
2019-05-12T06:11:36.259Z,-112
2019-05-12T06:12:09.600Z,-104
2019-05-12T06:12:40.291Z,-101
2019-05-12T06:13:06.277Z,-103
2019-05-12T06:13:36.404Z,-100
2019-05-12T06:14:11.222Z,-97
2019-05-12T06:14:36.426Z,-103
2019-05-12T06:15:08.761Z,-95
2019-05-12T06:15:40.540Z,-97
2019-05-12T06:16:11.537Z,-91
2019-05-12T06:16:36.379Z,-91
2019-05-12T06:17:06.493Z,-88
2019-05-12T06:17:36.439Z,-91
2019-05-12T06:18:06.568Z,-107
2019-05-12T06:18:36.532Z,-96
2019-05-12T06:19:06.453Z,-97
2019-05-12T06:19:36.478Z,-91
2019-05-12T06:20:06.478Z,-92
2019-05-12T06:20:38.035Z,-88
2019-05-12T06:21:06.588Z,-89
2019-05-12T06:21:38.120Z,-152
2019-05-12T06:22:08.862Z,-118
2019-05-12T06:22:36.540Z,-118
2019-05-12T06:23:06.550Z,-100
2019-05-12T06:23:39.098Z,-88
2019-05-12T06:24:08.573Z,-90
2019-05-12T06:24:36.547Z,-90
2019-05-12T06:25:06.563Z,-79
2019-05-12T06:25:45.876Z,-81
2019-05-12T06:26:06.578Z,-75
2019-05-12T06:26:36.717Z,-76
2019-05-12T06:27:15.061Z,-73
2019-05-12T06:27:36.732Z,-69
2019-05-12T06:28:08.843Z,-70
2019-05-12T06:28:41.005Z,-87
2019-05-12T06:29:11.144Z,-87
2019-05-12T06:29:36.710Z,-85
2019-05-12T06:30:06.809Z,-80
2019-05-12T06:30:44.084Z,-78
2019-05-12T06:31:06.862Z,-70
2019-05-12T06:31:36.816Z,-75
2019-05-12T06:32:10.701Z,-74
2019-05-12T06:32:41.084Z,-69
2019-05-12T06:33:06.885Z,-68
2019-05-12T06:33:36.949Z,-68
2019-05-12T06:34:14.996Z,-69
2019-05-12T06:34:36.993Z,-72
2019-05-12T06:35:06.936Z,-69
2019-05-12T06:35:41.979Z,-68
2019-05-12T06:36:07.495Z,-68
2019-05-12T06:36:36.880Z,-69
2019-05-12T06:37:11.753Z,-67
2019-05-12T06:37:36.971Z,-68
2019-05-12T06:38:07.050Z,-68
2019-05-12T06:38:40.328Z,-126
2019-05-12T06:39:10.312Z,-127
2019-05-12T06:39:36.998Z,-88
2019-05-12T06:40:07.104Z,-91
2019-05-12T06:40:40.925Z,-92
2019-05-12T06:41:07.047Z,-88
2019-05-12T06:41:37.031Z,-88
2019-05-12T06:42:12.206Z,-85
2019-05-12T06:42:37.083Z,-99
2019-05-12T06:43:07.063Z,-78
2019-05-12T06:43:38.823Z,-71
2019-05-12T06:44:13.375Z,-73
2019-05-12T06:44:37.064Z,-72
2019-05-12T06:45:07.125Z,-68
2019-05-12T06:45:41.786Z,-69
2019-05-12T06:46:07.204Z,-73
2019-05-12T06:46:37.153Z,-75
2019-05-12T06:47:08.386Z,-73
2019-05-12T06:47:39.231Z,-76
2019-05-12T06:48:07.154Z,-76
2019-05-12T06:48:37.154Z,-78
2019-05-12T06:49:12.592Z,-81
2019-05-12T06:49:37.236Z,-78
2019-05-12T06:50:07.264Z,-81
2019-05-12T06:50:39.045Z,-79
2019-05-12T06:51:09.063Z,-85
2019-05-12T06:51:37.201Z,-89
2019-05-12T06:52:07.358Z,-91
2019-05-12T06:52:38.528Z,-114
2019-05-12T06:53:07.431Z,-98
2019-05-12T06:53:37.332Z,-101
2019-05-12T06:54:11.754Z,-100
2019-05-12T06:54:42.402Z,-100
2019-05-12T06:55:07.375Z,-96
2019-05-12T06:55:39.269Z,-97
2019-05-12T06:56:09.300Z,-122
2019-05-12T06:56:37.297Z,-101
2019-05-12T06:57:20.631Z,-104
2019-05-12T06:57:39.925Z,-97
2019-05-12T06:58:07.350Z,-99
2019-05-12T06:58:37.363Z,-97
2019-05-12T06:59:11.540Z,-96
2019-05-12T06:59:37.356Z,-96
2019-05-12T07:00:07.412Z,-97
2019-05-12T07:00:37.425Z,-96
2019-05-12T07:01:10.338Z,-97
2019-05-12T07:01:37.514Z,-97
2019-05-12T07:02:07.592Z,-97
2019-05-12T07:02:48.651Z,-97
2019-05-12T07:03:07.478Z,-97
2019-05-12T07:03:37.466Z,-97
2019-05-12T07:04:09.973Z,-100
2019-05-12T07:04:41.183Z,-112
2019-05-12T07:05:07.489Z,-105
2019-05-12T07:05:38.490Z,-105
2019-05-12T07:06:09.052Z,-101
2019-05-12T07:06:37.733Z,-90
2019-05-12T07:07:07.511Z,-89
2019-05-12T07:07:41.818Z,-92
2019-05-12T07:08:07.504Z,-90
2019-05-12T07:08:38.475Z,-88
2019-05-12T07:09:09.696Z,-85
2019-05-12T07:09:50.035Z,-85
2019-05-12T07:10:11.483Z,-82
2019-05-12T07:10:43.288Z,-77
2019-05-12T07:11:07.633Z,-74
2019-05-12T07:11:44.649Z,-75
2019-05-12T07:12:07.605Z,-81
2019-05-12T07:12:48.233Z,-126
2019-05-12T07:13:07.636Z,-100
2019-05-12T07:13:37.680Z,-77
2019-05-12T07:14:13.363Z,-74
2019-05-12T07:14:37.766Z,-58
2019-05-12T07:15:07.729Z,-65
2019-05-12T07:15:40.253Z,-84
2019-05-12T07:16:10.020Z,-83
2019-05-12T07:16:37.697Z,-70
2019-05-12T07:17:07.787Z,-66
2019-05-12T07:17:43.588Z,-67
2019-05-12T07:18:07.841Z,-63
2019-05-12T07:18:37.839Z,-56
2019-05-12T07:19:37.784Z,-45
2019-05-12T07:20:07.794Z,-40
2019-05-12T07:20:39.094Z,-37
2019-05-12T07:21:09.296Z,-38
2019-05-12T07:21:37.943Z,-32
2019-05-12T07:22:19.779Z,-32
2019-05-12T07:22:44.061Z,-29
2019-05-12T07:23:07.872Z,-28
2019-05-12T07:23:37.883Z,-22
2019-05-12T07:24:10.987Z,-20
2019-05-12T07:24:40.844Z,-21
2019-05-12T07:25:08.388Z,-16
2019-05-12T07:25:37.977Z,-18
2019-05-12T07:26:13.797Z,-13
2019-05-12T07:26:37.965Z,-12
2019-05-12T07:27:09.261Z,-16
2019-05-12T07:27:39.649Z,-14
2019-05-12T07:28:08.289Z,-32
2019-05-12T07:28:40.347Z,-34
2019-05-12T07:29:07.994Z,-168
2019-05-12T07:29:38.001Z,-118
2019-05-12T07:30:08.023Z,-81
2019-05-12T07:30:38.063Z,-82
2019-05-12T07:31:08.043Z,-45
2019-05-12T07:31:38.153Z,-21
2019-05-12T07:32:16.125Z,-26
2019-05-12T07:32:38.050Z,-27
2019-05-12T07:33:08.160Z,-20
2019-05-12T07:33:41.641Z,-26
2019-05-12T07:34:08.168Z,-28
2019-05-12T07:34:38.194Z,-29
2019-05-12T07:35:08.226Z,-31
2019-05-12T07:35:38.169Z,-21
2019-05-12T07:36:08.093Z,-26
2019-05-12T07:36:38.138Z,-26
2019-05-12T07:37:08.156Z,-26
2019-05-12T07:37:38.208Z,-26
2019-05-12T07:38:12.006Z,-34
2019-05-12T07:38:38.409Z,-32
2019-05-12T07:39:08.602Z,-33
2019-05-12T07:39:45.262Z,-36
2019-05-12T07:40:08.283Z,-31
2019-05-12T07:40:38.298Z,-40
2019-05-12T07:41:10.586Z,-39
2019-05-12T07:41:42.155Z,-42
2019-05-12T07:42:08.432Z,-42
2019-05-12T07:42:39.472Z,-36
2019-05-12T07:43:09.742Z,-38
2019-05-12T07:43:38.430Z,-41
2019-05-12T07:44:08.464Z,-39
2019-05-12T07:44:39.877Z,-40
2019-05-12T07:45:11.270Z,-69
2019-05-12T07:45:38.372Z,-63
2019-05-12T07:46:08.459Z,-167
2019-05-12T07:46:39.519Z,-130
2019-05-12T07:47:08.508Z,-129
2019-05-12T07:47:38.548Z,-83
2019-05-12T07:48:10.417Z,-59
2019-05-12T07:48:40.148Z,-59
2019-05-12T07:49:08.482Z,-58
2019-05-12T07:49:38.798Z,-56
2019-05-12T07:50:09.713Z,-51
2019-05-12T07:50:38.588Z,113
2019-05-12T07:51:08.589Z,-41
2019-05-12T07:51:40.401Z,-37
2019-05-12T07:52:08.739Z,-37
2019-05-12T07:52:38.570Z,-38
2019-05-12T07:53:08.546Z,-37
2019-05-12T07:53:38.559Z,-33
2019-05-12T07:54:08.666Z,-30
2019-05-12T07:54:39.532Z,-27
2019-05-12T07:55:08.754Z,-24
2019-05-12T07:55:39.535Z,-24
2019-05-12T07:56:08.706Z,-31
2019-05-12T07:56:40.754Z,-31
2019-05-12T07:57:11.633Z,-28
2019-05-12T07:57:51.893Z,-23
2019-05-12T07:58:13.627Z,-24
2019-05-12T07:58:40.846Z,-22
2019-05-12T07:59:08.792Z,-26
2019-05-12T07:59:40.726Z,-16
2019-05-12T08:00:11.262Z,-21
2019-05-12T08:00:38.904Z,-22
2019-05-12T08:01:08.782Z,-37
2019-05-12T08:01:44.084Z,-38
2019-05-12T08:02:08.798Z,-36
2019-05-12T08:02:38.802Z,-38
2019-05-12T08:03:15.776Z,-39
2019-05-12T08:03:38.840Z,-138
2019-05-12T08:04:08.803Z,-100
2019-05-12T08:04:39.704Z,-66
2019-05-12T08:05:10.909Z,-27
2019-05-12T08:05:38.823Z,-26
2019-05-12T08:06:08.873Z,-19
2019-05-12T08:06:41.536Z,-20
2019-05-12T08:07:08.986Z,-21
2019-05-12T08:07:39.040Z,-11
2019-05-12T08:08:10.613Z,-4
2019-05-12T08:08:41.706Z,-2
2019-05-12T08:09:08.934Z,-3
2019-05-12T08:09:38.955Z,4
2019-05-12T08:10:15.694Z,4
2019-05-12T08:10:39.085Z,2
2019-05-12T08:11:09.166Z,-2
2019-05-12T08:11:39.241Z,-5
2019-05-12T08:12:09.510Z,-4
2019-05-12T08:12:39.151Z,-5
2019-05-12T08:13:09.088Z,-8
2019-05-12T08:13:40.867Z,-8
2019-05-12T08:14:13.059Z,-8
2019-05-12T08:14:39.151Z,-10
2019-05-12T08:15:09.716Z,-4
2019-05-12T08:15:39.712Z,0
2019-05-12T08:16:09.254Z,2
2019-05-12T08:16:39.357Z,5
2019-05-12T08:17:14.018Z,12
2019-05-12T08:17:39.190Z,-18
2019-05-12T08:18:09.238Z,-20
2019-05-12T08:18:40.890Z,-143
2019-05-12T08:19:14.731Z,-160
2019-05-12T08:19:39.233Z,-153
2019-05-12T08:20:09.232Z,-146
2019-05-12T08:20:39.218Z,-143
2019-05-12T08:21:09.289Z,-312
2019-05-12T08:21:43.369Z,-209
2019-05-12T08:22:09.349Z,-210
2019-05-12T08:22:40.894Z,-148
2019-05-12T08:23:10.637Z,-100
2019-05-12T08:23:39.341Z,-107
2019-05-12T08:24:09.433Z,-100
2019-05-12T08:24:42.964Z,-104
2019-05-12T08:25:09.447Z,-131
2019-05-12T08:25:39.362Z,-122
2019-05-12T08:26:11.928Z,-153
2019-05-12T08:26:39.399Z,-112
2019-05-12T08:27:09.470Z,-113
2019-05-12T08:27:45.010Z,-138
2019-05-12T08:28:15.315Z,-119
2019-05-12T08:28:40.300Z,-122
2019-05-12T08:29:10.256Z,-130
2019-05-12T08:29:39.516Z,-130
2019-05-12T08:30:09.582Z,-122
2019-05-12T08:30:45.715Z,-125
2019-05-12T08:31:09.679Z,-131
2019-05-12T08:31:40.722Z,-123
2019-05-12T08:32:14.777Z,-146
2019-05-12T08:32:39.666Z,-130
2019-05-12T08:33:10.175Z,-151
2019-05-12T08:33:39.666Z,-152
2019-05-12T08:34:09.698Z,-159
2019-05-12T08:34:39.993Z,-146
2019-05-12T08:35:09.739Z,-134
2019-05-12T08:35:39.686Z,-127
2019-05-12T08:36:11.641Z,-127
2019-05-12T08:36:44.826Z,-108
2019-05-12T08:37:09.761Z,-110
2019-05-12T08:37:39.844Z,-127
2019-05-12T08:38:09.770Z,-296
2019-05-12T08:38:39.880Z,-243
2019-05-12T08:39:11.687Z,-115
2019-05-12T08:39:39.832Z,-114
2019-05-12T08:40:09.917Z,-41
2019-05-12T08:40:45.237Z,-31
2019-05-12T08:41:10.009Z,-30
2019-05-12T08:41:39.996Z,-46
2019-05-12T08:42:09.989Z,-56
2019-05-12T08:42:39.941Z,-65
2019-05-12T08:43:10.632Z,-70
2019-05-12T08:43:40.430Z,-79
2019-05-12T08:44:10.224Z,-78
2019-05-12T08:44:40.536Z,-86
2019-05-12T08:45:14.780Z,-87
2019-05-12T08:45:40.116Z,-100
2019-05-12T08:46:11.891Z,-101
2019-05-12T08:46:43.007Z,-106
2019-05-12T08:47:11.990Z,-113
2019-05-12T08:47:40.269Z,-100
2019-05-12T08:48:16.007Z,-89
2019-05-12T08:48:40.402Z,-56
2019-05-12T08:49:10.173Z,-58
2019-05-12T08:49:49.716Z,-38
2019-05-12T08:50:10.101Z,-42
2019-05-12T08:50:42.811Z,-41
2019-05-12T08:51:13.812Z,-42
2019-05-12T08:51:40.235Z,-40
2019-05-12T08:52:10.162Z,-42
2019-05-12T08:52:41.869Z,-46
2019-05-12T08:53:12.135Z,-46
2019-05-12T08:53:40.216Z,1
2019-05-12T08:54:10.258Z,-3
2019-05-12T08:54:45.266Z,-8
2019-05-12T08:55:10.280Z,-14
2019-05-12T08:55:40.238Z,-13
2019-05-12T08:56:12.835Z,-23
2019-05-12T08:56:40.767Z,-29
2019-05-12T08:57:10.443Z,-34
2019-05-12T08:57:41.405Z,-39
2019-05-12T08:58:10.992Z,-42
2019-05-12T08:58:47.994Z,-45
2019-05-12T08:59:15.412Z,-91
2019-05-12T08:59:40.403Z,-118
2019-05-12T09:00:10.557Z,-113
2019-05-12T09:00:46.267Z,-78
2019-05-12T09:01:10.647Z,-75
2019-05-12T09:01:40.733Z,-79
2019-05-12T09:02:10.894Z,-86
2019-05-12T09:02:45.904Z,-93
2019-05-12T09:03:10.657Z,-93
2019-05-12T09:03:40.600Z,-100
2019-05-12T09:04:14.758Z,-101
2019-05-12T09:04:42.953Z,-67
2019-05-12T09:05:10.657Z,-62
2019-05-12T09:05:40.816Z,-61
2019-05-12T09:06:15.339Z,-63
2019-05-12T09:06:40.605Z,-62
2019-05-12T09:07:10.588Z,-54
2019-05-12T09:07:40.697Z,-61
2019-05-12T09:08:10.617Z,-61
2019-05-12T09:08:44.614Z,-56
2019-05-12T09:09:10.686Z,-62
2019-05-12T09:09:40.730Z,-60
2019-05-12T09:10:10.747Z,-70
2019-05-12T09:10:40.709Z,-219
2019-05-12T09:11:11.044Z,-210
2019-05-12T09:11:40.771Z,-164
2019-05-12T09:12:10.771Z,-130
2019-05-12T09:12:40.831Z,-89
2019-05-12T09:13:10.848Z,-77
2019-05-12T09:13:43.197Z,-73
2019-05-12T09:14:11.012Z,-81
2019-05-12T09:14:41.507Z,-75
2019-05-12T09:15:10.874Z,-63
2019-05-12T09:15:40.782Z,-50
2019-05-12T09:16:10.951Z,-47
2019-05-12T09:16:40.842Z,-41
2019-05-12T09:17:11.113Z,-30
2019-05-12T09:17:48.845Z,218
2019-05-12T09:18:11.042Z,-11
2019-05-12T09:18:40.885Z,5
2019-05-12T09:19:16.125Z,10
2019-05-12T09:19:40.906Z,20
2019-05-12T09:20:10.875Z,21
2019-05-12T09:20:48.636Z,10
2019-05-12T09:21:10.940Z,9
2019-05-12T09:21:40.928Z,-3
2019-05-12T09:22:16.643Z,-5
2019-05-12T09:22:42.852Z,-8
2019-05-12T09:23:13.443Z,-8
2019-05-12T09:23:42.462Z,-20
2019-05-12T09:24:13.492Z,-31
2019-05-12T09:24:40.911Z,-29
2019-05-12T09:25:10.928Z,-29
2019-05-12T09:25:44.965Z,-35
2019-05-12T09:26:13.003Z,-34
2019-05-12T09:26:42.975Z,-48
2019-05-12T09:27:11.090Z,-46
2019-05-12T09:27:45.476Z,-228
2019-05-12T09:28:11.106Z,-191
2019-05-12T09:28:47.224Z,-136
2019-05-12T09:29:11.046Z,-219
2019-05-12T09:29:43.429Z,-128
2019-05-12T09:30:11.164Z,-124
2019-05-12T09:30:45.694Z,-108
2019-05-12T09:31:11.111Z,-102
2019-05-12T09:31:41.066Z,-114
2019-05-12T09:32:11.047Z,-110
2019-05-12T09:32:45.257Z,-113
2019-05-12T09:33:11.255Z,-99
2019-05-12T09:33:41.156Z,-91
2019-05-12T09:34:13.549Z,-61
2019-05-12T09:34:44.598Z,-54
2019-05-12T09:35:11.169Z,-42
2019-05-12T09:35:43.185Z,3
2019-05-12T09:36:16.565Z,-2
2019-05-12T09:36:41.278Z,-1
2019-05-12T09:37:11.265Z,-37
2019-05-12T09:37:41.351Z,-45
2019-05-12T09:38:16.987Z,-46
2019-05-12T09:38:41.342Z,-60
2019-05-12T09:39:11.319Z,-65
2019-05-12T09:39:43.306Z,-66
2019-05-12T09:40:11.467Z,-78
2019-05-12T09:40:43.511Z,-74
2019-05-12T09:41:13.678Z,-81
2019-05-12T09:41:43.678Z,-98
2019-05-12T09:42:11.427Z,-86
2019-05-12T09:42:41.306Z,-91
2019-05-12T09:43:13.441Z,-113
2019-05-12T09:43:46.115Z,-111
2019-05-12T09:44:13.331Z,-134
2019-05-12T09:44:43.428Z,5
2019-05-12T09:45:11.335Z,126
2019-05-12T09:45:49.500Z,132
2019-05-12T09:46:14.223Z,133
2019-05-12T09:46:43.641Z,132
2019-05-12T09:47:19.231Z,108
2019-05-12T09:47:43.549Z,125
2019-05-12T09:48:13.846Z,113
2019-05-12T09:48:45.556Z,105
2019-05-12T09:49:11.628Z,55
2019-05-12T09:49:43.929Z,67
2019-05-12T09:50:15.897Z,65
2019-05-12T09:50:44.180Z,53
2019-05-12T09:51:13.317Z,54
2019-05-12T09:51:43.650Z,49
2019-05-12T09:52:13.693Z,33
2019-05-12T09:52:43.896Z,39
2019-05-12T09:53:11.721Z,18
2019-05-12T09:53:42.663Z,14
2019-05-12T09:54:13.380Z,1
2019-05-12T09:54:41.643Z,9
2019-05-12T09:55:11.719Z,-3
2019-05-12T09:55:43.693Z,-17
2019-05-12T09:56:13.702Z,-22
2019-05-12T09:56:43.971Z,-24
2019-05-12T09:57:13.624Z,-23
2019-05-12T09:57:42.753Z,-51
2019-05-12T09:58:13.709Z,-34
2019-05-12T09:58:43.566Z,-45
2019-05-12T09:59:18.886Z,-45